createdAt,value
2023-05-05T00:00:03.000Z,280.46
2023-05-05T00:02:10.000Z,280.4
2023-05-05T00:03:36.000Z,280.34
2023-05-05T00:05:43.000Z,280.34
2023-05-05T00:07:09.000Z,280.4
2023-05-05T00:09:15.000Z,280.4
2023-05-05T00:10:42.000Z,280.52
2023-05-05T00:12:48.000Z,280.52
2023-05-05T00:14:15.000Z,280.46
2023-05-05T00:16:21.000Z,280.34
2023-05-05T00:17:48.000Z,280.27
2023-05-05T00:19:54.000Z,280.27
2023-05-05T00:21:20.000Z,280.21
2023-05-05T00:23:27.000Z,280.09
2023-05-05T00:24:53.000Z,280.09
2023-05-05T00:26:59.000Z,280.02
2023-05-05T00:28:26.000Z,280.02
2023-05-05T00:30:32.000Z,280.02
2023-05-05T00:33:23.000Z,279.96
2023-05-05T00:34:49.000Z,279.96
2023-05-05T00:36:55.000Z,279.96
2023-05-05T00:38:22.000Z,279.9
2023-05-05T00:40:28.000Z,279.9
2023-05-05T00:41:55.000Z,279.9
2023-05-05T00:44:01.000Z,279.96
2023-05-05T00:45:27.000Z,279.96
2023-05-05T00:47:33.000Z,279.9
2023-05-05T00:49:00.000Z,279.9
2023-05-05T00:51:06.000Z,279.9
2023-05-05T00:52:33.000Z,279.96
2023-05-05T00:54:39.000Z,279.9
2023-05-05T00:56:05.000Z,279.9
2023-05-05T00:58:11.000Z,279.9
2023-05-05T00:59:38.000Z,279.96
2023-05-05T01:01:44.000Z,279.96
2023-05-05T01:03:11.000Z,279.96
2023-05-05T01:05:17.000Z,279.96
2023-05-05T01:06:43.000Z,280.02
2023-05-05T01:08:49.000Z,280.09
2023-05-05T01:11:40.000Z,280.02
2023-05-05T01:13:07.000Z,280.09
2023-05-05T01:15:13.000Z,280.09
2023-05-05T01:16:40.000Z,280.09
2023-05-05T01:18:46.000Z,280.02
2023-05-05T01:20:12.000Z,280.09
2023-05-05T01:22:18.000Z,280.02
2023-05-05T01:23:45.000Z,280.02
2023-05-05T01:25:51.000Z,280.02
2023-05-05T01:27:18.000Z,280.02
2023-05-05T01:29:24.000Z,280.02
2023-05-05T01:30:50.000Z,280.09
2023-05-05T01:32:56.000Z,280.09
2023-05-05T01:34:23.000Z,280.09
2023-05-05T01:36:29.000Z,280.02
2023-05-05T01:37:55.000Z,280.02
2023-05-05T01:40:01.000Z,279.96
2023-05-05T01:41:28.000Z,279.96
2023-05-05T01:43:35.000Z,280.09
2023-05-05T01:45:01.000Z,280.09
2023-05-05T01:47:07.000Z,280.15
2023-05-05T01:49:58.000Z,280.15
2023-05-05T01:51:24.000Z,280.21
2023-05-05T01:53:31.000Z,280.27
2023-05-05T01:54:57.000Z,280.34
2023-05-05T01:57:03.000Z,280.27
2023-05-05T01:58:30.000Z,280.21
2023-05-05T02:00:36.000Z,280.09
2023-05-05T02:02:03.000Z,280.02
2023-05-05T02:04:09.000Z,280.02
2023-05-05T02:05:36.000Z,280.02
2023-05-05T02:07:42.000Z,280.09
2023-05-05T02:09:08.000Z,280.15
2023-05-05T02:11:14.000Z,280.15
2023-05-05T02:12:41.000Z,280.15
2023-05-05T02:14:47.000Z,280.15
2023-05-05T02:16:13.000Z,280.21
2023-05-05T02:18:20.000Z,280.21
2023-05-05T02:19:46.000Z,280.27
2023-05-05T02:21:53.000Z,280.27
2023-05-05T02:23:19.000Z,280.27
2023-05-05T02:25:25.000Z,280.21
2023-05-05T02:28:16.000Z,280.27
2023-05-05T02:29:43.000Z,280.21
2023-05-05T02:31:49.000Z,280.27
2023-05-05T02:33:15.000Z,280.21
2023-05-05T02:35:21.000Z,280.21
2023-05-05T02:36:48.000Z,280.21
2023-05-05T02:38:54.000Z,280.15
2023-05-05T02:40:21.000Z,280.15
2023-05-05T02:42:27.000Z,280.09
2023-05-05T02:43:53.000Z,280.09
2023-05-05T02:45:59.000Z,279.96
2023-05-05T02:47:26.000Z,280.02
2023-05-05T02:49:32.000Z,279.96
2023-05-05T02:50:59.000Z,279.96
2023-05-05T02:53:05.000Z,279.9
2023-05-05T02:54:31.000Z,279.9
2023-05-05T02:56:37.000Z,279.9
2023-05-05T02:58:04.000Z,279.84
2023-05-05T03:00:10.000Z,279.84
2023-05-05T03:01:36.000Z,279.84
2023-05-05T03:03:43.000Z,279.84
2023-05-05T03:06:34.000Z,279.9
2023-05-05T03:08:01.000Z,279.9
2023-05-05T03:10:07.000Z,279.9
2023-05-05T03:11:34.000Z,279.9
2023-05-05T03:13:40.000Z,279.9
2023-05-05T03:15:06.000Z,279.84
2023-05-05T03:17:13.000Z,279.9
2023-05-05T03:18:39.000Z,279.96
2023-05-05T03:20:45.000Z,280.02
2023-05-05T03:22:12.000Z,279.96
2023-05-05T03:24:18.000Z,279.84
2023-05-05T03:25:44.000Z,279.84
2023-05-05T03:27:50.000Z,279.84
2023-05-05T03:29:17.000Z,279.84
2023-05-05T03:31:23.000Z,279.77
2023-05-05T03:32:50.000Z,279.71
2023-05-05T03:34:56.000Z,279.77
2023-05-05T03:36:22.000Z,279.77
2023-05-05T03:38:31.000Z,279.77
2023-05-05T03:39:58.000Z,279.65
2023-05-05T03:42:04.000Z,279.65
2023-05-05T03:44:55.000Z,279.52
2023-05-05T03:46:22.000Z,279.52
2023-05-05T03:48:28.000Z,279.59
2023-05-05T03:49:54.000Z,279.59
2023-05-05T03:52:00.000Z,279.65
2023-05-05T03:53:27.000Z,279.65
2023-05-05T03:55:33.000Z,279.71
2023-05-05T03:56:59.000Z,279.59
2023-05-05T03:59:06.000Z,279.59
2023-05-05T04:00:32.000Z,279.59
2023-05-05T04:02:38.000Z,279.59
2023-05-05T04:04:05.000Z,279.59
2023-05-05T04:06:11.000Z,279.71
2023-05-05T04:07:38.000Z,279.65
2023-05-05T04:09:44.000Z,279.65
2023-05-05T04:11:10.000Z,279.9
2023-05-05T04:13:16.000Z,280.02
2023-05-05T04:14:43.000Z,280.02
2023-05-05T04:16:49.000Z,280.02
2023-05-05T04:18:16.000Z,280.09
2023-05-05T04:20:22.000Z,280.15
2023-05-05T04:23:13.000Z,280.15
2023-05-05T04:24:40.000Z,280.15
2023-05-05T04:26:46.000Z,280.15
2023-05-05T04:28:12.000Z,280.21
2023-05-05T04:30:18.000Z,280.21
2023-05-05T04:31:45.000Z,280.27
2023-05-05T04:33:51.000Z,280.52
2023-05-05T04:35:18.000Z,280.65
2023-05-05T04:37:24.000Z,280.52
2023-05-05T04:38:50.000Z,280.46
2023-05-05T04:40:57.000Z,280.52
2023-05-05T04:42:23.000Z,280.52
2023-05-05T04:44:29.000Z,280.52
2023-05-05T04:45:56.000Z,280.52
2023-05-05T04:48:02.000Z,280.52
2023-05-05T04:49:28.000Z,280.59
2023-05-05T04:51:34.000Z,280.52
2023-05-05T04:53:01.000Z,280.59
2023-05-05T04:55:07.000Z,280.59
2023-05-05T04:56:34.000Z,280.59
2023-05-05T04:58:40.000Z,280.65
2023-05-05T05:01:31.000Z,280.77
2023-05-05T05:02:57.000Z,280.77
2023-05-05T05:05:04.000Z,280.84
2023-05-05T05:06:30.000Z,280.9
2023-05-05T05:08:36.000Z,281.02
2023-05-05T05:10:03.000Z,281.09
2023-05-05T05:12:09.000Z,281.21
2023-05-05T05:13:36.000Z,281.27
2023-05-05T05:15:42.000Z,281.21
2023-05-05T05:17:08.000Z,281.21
2023-05-05T05:19:14.000Z,281.21
2023-05-05T05:20:41.000Z,281.4
2023-05-05T05:22:47.000Z,281.46
2023-05-05T05:24:13.000Z,281.52
2023-05-05T05:26:20.000Z,281.59
2023-05-05T05:27:46.000Z,281.52
2023-05-05T05:30:10.000Z,281.46
2023-05-05T05:31:36.000Z,281.52
2023-05-05T05:33:42.000Z,281.65
2023-05-05T05:35:09.000Z,281.77
2023-05-05T05:37:15.000Z,281.96
2023-05-05T05:40:06.000Z,282.21
2023-05-05T05:41:33.000Z,282.21
2023-05-05T05:43:39.000Z,282.21
2023-05-05T05:45:06.000Z,282.34
2023-05-05T05:47:12.000Z,282.46
2023-05-05T05:48:38.000Z,282.52
2023-05-05T05:50:44.000Z,282.65
2023-05-05T05:52:11.000Z,282.71
2023-05-05T05:54:17.000Z,282.71
2023-05-05T05:55:43.000Z,282.71
2023-05-05T05:57:50.000Z,282.77
2023-05-05T05:59:16.000Z,282.77
2023-05-05T06:01:22.000Z,282.77
2023-05-05T06:02:49.000Z,282.84
2023-05-05T06:04:55.000Z,282.96
2023-05-05T06:06:22.000Z,283.02
2023-05-05T06:08:28.000Z,283.15
2023-05-05T06:09:54.000Z,283.15
2023-05-05T06:12:00.000Z,283.15
2023-05-05T06:13:27.000Z,283.21
2023-05-05T06:15:33.000Z,283.34
2023-05-05T06:18:24.000Z,283.59
2023-05-05T06:19:51.000Z,283.71
2023-05-05T06:21:58.000Z,283.71
2023-05-05T06:23:25.000Z,283.77
2023-05-05T06:25:31.000Z,283.9
2023-05-05T06:26:57.000Z,283.96
2023-05-05T06:29:03.000Z,284.15
2023-05-05T06:30:30.000Z,284.27
2023-05-05T06:32:36.000Z,284.46
2023-05-05T06:34:03.000Z,284.46
2023-05-05T06:36:09.000Z,284.52
2023-05-05T06:37:35.000Z,284.52
2023-05-05T06:39:41.000Z,284.65
2023-05-05T06:41:08.000Z,284.71
2023-05-05T06:43:14.000Z,284.77
2023-05-05T06:44:41.000Z,284.84
2023-05-05T06:46:47.000Z,284.96
2023-05-05T06:48:13.000Z,285.09
2023-05-05T06:50:19.000Z,285.21
2023-05-05T06:51:46.000Z,285.27
2023-05-05T06:53:52.000Z,285.34
2023-05-05T06:56:43.000Z,285.59
2023-05-05T06:58:10.000Z,285.65
2023-05-05T07:00:16.000Z,285.77
2023-05-05T07:01:42.000Z,285.9
2023-05-05T07:03:49.000Z,286.02
2023-05-05T07:05:15.000Z,286.09
2023-05-05T07:07:21.000Z,286.15
2023-05-05T07:08:48.000Z,286.34
2023-05-05T07:10:54.000Z,286.4
2023-05-05T07:12:20.000Z,286.52
2023-05-05T07:14:26.000Z,286.71
2023-05-05T07:15:53.000Z,286.71
2023-05-05T07:17:59.000Z,287.02
2023-05-05T07:19:26.000Z,287.15
2023-05-05T07:21:32.000Z,287.15
2023-05-05T07:22:58.000Z,287.15
2023-05-05T07:25:04.000Z,287.27
2023-05-05T07:26:31.000Z,287.34
2023-05-05T07:28:37.000Z,287.52
2023-05-05T07:30:04.000Z,287.71
2023-05-05T07:32:16.000Z,287.84
2023-05-05T07:35:07.000Z,288.02
2023-05-05T07:36:34.000Z,288.21
2023-05-05T07:38:40.000Z,288.4
2023-05-05T07:40:07.000Z,288.46
2023-05-05T07:42:13.000Z,288.46
2023-05-05T07:43:40.000Z,288.4
2023-05-05T07:45:48.000Z,288.46
2023-05-05T07:47:15.000Z,288.52
2023-05-05T07:49:21.000Z,288.71
2023-05-05T07:50:47.000Z,288.9
2023-05-05T07:54:20.000Z,289.15
2023-05-05T07:56:26.000Z,289.27
2023-05-05T07:57:53.000Z,289.21
2023-05-05T07:59:59.000Z,289.27
2023-05-05T08:01:25.000Z,289.34
2023-05-05T08:03:32.000Z,289.4
2023-05-05T08:04:59.000Z,289.52
2023-05-05T08:07:05.000Z,289.77
2023-05-05T08:08:31.000Z,289.9
2023-05-05T08:10:37.000Z,290.02
2023-05-05T08:13:28.000Z,290.21
2023-05-05T08:14:55.000Z,290.4
2023-05-05T08:17:01.000Z,290.52
2023-05-05T08:18:27.000Z,290.65
2023-05-05T08:20:33.000Z,290.71
2023-05-05T08:22:00.000Z,290.77
2023-05-05T08:24:06.000Z,291.02
2023-05-05T08:25:32.000Z,291.02
2023-05-05T08:27:38.000Z,291.15
2023-05-05T08:29:05.000Z,291.21
2023-05-05T08:31:11.000Z,291.27
2023-05-05T08:32:38.000Z,291.27
2023-05-05T08:34:44.000Z,291.46
2023-05-05T08:36:10.000Z,291.59
2023-05-05T08:38:17.000Z,291.96
2023-05-05T08:39:43.000Z,291.96
2023-05-05T08:41:49.000Z,291.9
2023-05-05T08:43:16.000Z,291.9
2023-05-05T08:45:22.000Z,291.96
2023-05-05T08:46:48.000Z,292.15
2023-05-05T08:48:55.000Z,292.59
2023-05-05T08:51:46.000Z,292.96
2023-05-05T08:53:12.000Z,292.9
2023-05-05T08:55:18.000Z,292.77
2023-05-05T08:56:45.000Z,292.84
2023-05-05T08:58:51.000Z,292.84
2023-05-05T09:00:18.000Z,292.9
2023-05-05T09:02:24.000Z,292.77
2023-05-05T09:03:51.000Z,292.77
2023-05-05T09:05:57.000Z,292.9
2023-05-05T09:07:23.000Z,293.09
2023-05-05T09:09:29.000Z,293.09
2023-05-05T09:10:56.000Z,293.02
2023-05-05T09:13:02.000Z,293.34
2023-05-05T09:14:28.000Z,293.46
2023-05-05T09:16:35.000Z,293.71
2023-05-05T09:18:01.000Z,293.65
2023-05-05T09:20:07.000Z,293.59
2023-05-05T09:21:34.000Z,293.4
2023-05-05T09:23:40.000Z,293.4
2023-05-05T09:25:07.000Z,293.34
2023-05-05T09:27:13.000Z,293.34
2023-05-05T09:30:04.000Z,293.4
2023-05-05T09:31:31.000Z,293.46
2023-05-05T09:33:37.000Z,293.52
2023-05-05T09:35:03.000Z,293.52
2023-05-05T09:37:10.000Z,293.34
2023-05-05T09:38:36.000Z,293.09
2023-05-05T09:40:43.000Z,293.34
2023-05-05T09:42:09.000Z,293.34
2023-05-05T09:44:15.000Z,293.46
2023-05-05T09:45:42.000Z,293.46
2023-05-05T09:47:48.000Z,293.4
2023-05-05T09:49:15.000Z,293.4
2023-05-05T09:51:21.000Z,293.34
2023-05-05T09:52:47.000Z,293.46
2023-05-05T09:54:53.000Z,293.71
2023-05-05T09:56:20.000Z,293.84
2023-05-05T09:58:26.000Z,293.96
2023-05-05T09:59:53.000Z,294.15
2023-05-05T10:01:59.000Z,294.09
2023-05-05T10:03:26.000Z,294.15
2023-05-05T10:05:32.000Z,294.21
2023-05-05T10:08:23.000Z,294.21
2023-05-05T10:09:49.000Z,294.27
2023-05-05T10:11:55.000Z,294.34
2023-05-05T10:13:22.000Z,294.27
2023-05-05T10:15:28.000Z,294.02
2023-05-05T10:16:55.000Z,294.09
2023-05-05T10:19:01.000Z,294.27
2023-05-05T10:20:27.000Z,294.34
2023-05-05T10:22:33.000Z,294.4
2023-05-05T10:24:00.000Z,294.21
2023-05-05T10:26:06.000Z,294.09
2023-05-05T10:27:33.000Z,293.96
2023-05-05T10:29:39.000Z,294.02
2023-05-05T10:31:05.000Z,294.27
2023-05-05T10:33:28.000Z,294.84
2023-05-05T10:34:57.000Z,294.77
2023-05-05T10:37:03.000Z,294.77
2023-05-05T10:38:29.000Z,294.96
2023-05-05T10:40:36.000Z,295.02
2023-05-05T10:42:02.000Z,295.02
2023-05-05T10:44:08.000Z,295.02
2023-05-05T10:47:00.000Z,295.15
2023-05-05T10:48:26.000Z,295.27
2023-05-05T10:50:32.000Z,295.46
2023-05-05T10:51:59.000Z,295.52
2023-05-05T10:54:05.000Z,295.65
2023-05-05T10:55:32.000Z,295.52
2023-05-05T10:57:38.000Z,295.59
2023-05-05T10:59:04.000Z,295.52
2023-05-05T11:01:10.000Z,295.65
2023-05-05T11:02:37.000Z,295.71
2023-05-05T11:04:43.000Z,295.27
2023-05-05T11:06:10.000Z,294.9
2023-05-05T11:08:16.000Z,294.46
2023-05-05T11:12:03.000Z,294.96
2023-05-05T11:13:30.000Z,295.09
2023-05-05T11:15:36.000Z,295.15
2023-05-05T11:17:03.000Z,295.15
2023-05-05T11:19:09.000Z,295.02
2023-05-05T11:20:35.000Z,294.9
2023-05-05T11:22:42.000Z,295.21
2023-05-05T11:25:33.000Z,295.15
2023-05-05T11:27:00.000Z,295.34
2023-05-05T11:29:06.000Z,295.27
2023-05-05T11:30:33.000Z,295.15
2023-05-05T11:32:39.000Z,295.15
2023-05-05T11:34:06.000Z,295.02
2023-05-05T11:36:12.000Z,295.02
2023-05-05T11:37:38.000Z,295.15
2023-05-05T11:39:45.000Z,295.27
2023-05-05T11:41:11.000Z,295.27
2023-05-05T11:43:17.000Z,295.15
2023-05-05T11:44:44.000Z,295.21
2023-05-05T11:46:50.000Z,295.4
2023-05-05T11:48:17.000Z,295.59
2023-05-05T11:50:23.000Z,295.21
2023-05-05T11:51:49.000Z,294.96
2023-05-05T11:53:56.000Z,294.9
2023-05-05T11:55:23.000Z,294.84
2023-05-05T11:57:29.000Z,294.9
2023-05-05T11:58:56.000Z,294.96
2023-05-05T12:01:02.000Z,295.09
2023-05-05T12:03:53.000Z,295.21
2023-05-05T12:05:20.000Z,295.21
2023-05-05T12:07:26.000Z,295.21
2023-05-05T12:08:53.000Z,295.09
2023-05-05T12:10:59.000Z,294.96
2023-05-05T12:12:25.000Z,295.15
2023-05-05T12:14:32.000Z,295.46
2023-05-05T12:15:58.000Z,295.46
2023-05-05T12:18:05.000Z,295.34
2023-05-05T12:19:31.000Z,295.34
2023-05-05T12:21:37.000Z,295.27
2023-05-05T12:23:04.000Z,295.27
2023-05-05T12:25:10.000Z,295.15
2023-05-05T12:26:36.000Z,294.96
2023-05-05T12:28:43.000Z,294.9
2023-05-05T12:30:09.000Z,294.84
2023-05-05T12:32:15.000Z,294.65
2023-05-05T12:33:42.000Z,294.59
2023-05-05T12:35:48.000Z,294.52
2023-05-05T12:37:15.000Z,294.46
2023-05-05T12:39:21.000Z,294.34
2023-05-05T12:42:12.000Z,294.4
2023-05-05T12:43:38.000Z,294.46
2023-05-05T12:45:44.000Z,294.4
2023-05-05T12:47:11.000Z,294.46
2023-05-05T12:49:17.000Z,294.4
2023-05-05T12:50:43.000Z,294.4
2023-05-05T12:52:50.000Z,294.4
2023-05-05T12:54:16.000Z,294.4
2023-05-05T12:56:22.000Z,294.46
2023-05-05T12:57:49.000Z,294.4
2023-05-05T12:59:55.000Z,294.4
2023-05-05T13:01:21.000Z,294.46
2023-05-05T13:03:28.000Z,294.34
2023-05-05T13:04:54.000Z,294.09
2023-05-05T13:07:01.000Z,294.21
2023-05-05T13:08:27.000Z,293.96
2023-05-05T13:10:33.000Z,293.77
2023-05-05T13:12:00.000Z,293.84
2023-05-05T13:14:06.000Z,294.09
2023-05-05T13:15:33.000Z,294.15
2023-05-05T13:17:39.000Z,294.4
2023-05-05T13:20:30.000Z,294.71
2023-05-05T13:21:57.000Z,294.77
2023-05-05T13:24:03.000Z,294.71
2023-05-05T13:25:52.000Z,294.9
2023-05-05T13:27:58.000Z,295.09
2023-05-05T13:29:25.000Z,294.9
2023-05-05T13:31:35.000Z,294.84
2023-05-05T13:33:02.000Z,294.77
2023-05-05T13:35:08.000Z,294.71
2023-05-05T13:36:38.000Z,294.9
2023-05-05T13:38:44.000Z,295.02
2023-05-05T13:40:11.000Z,295.15
2023-05-05T13:42:17.000Z,295.15
2023-05-05T13:43:43.000Z,295.27
2023-05-05T13:45:50.000Z,295.27
2023-05-05T13:47:16.000Z,295.34
2023-05-05T13:49:22.000Z,295.21
2023-05-05T13:50:49.000Z,295.15
2023-05-05T13:52:55.000Z,295.09
2023-05-05T13:54:22.000Z,295.15
2023-05-05T13:56:28.000Z,295.34
2023-05-05T13:59:20.000Z,295.71
2023-05-05T14:00:46.000Z,295.77
2023-05-05T14:02:52.000Z,295.9
2023-05-05T14:04:19.000Z,295.84
2023-05-05T14:06:25.000Z,295.84
2023-05-05T14:07:52.000Z,295.77
2023-05-05T14:09:58.000Z,296.02
2023-05-05T14:11:25.000Z,295.9
2023-05-05T14:13:31.000Z,295.77
2023-05-05T14:14:57.000Z,295.59
2023-05-05T14:17:03.000Z,295.21
2023-05-05T14:18:30.000Z,295.15
2023-05-05T14:20:36.000Z,295.21
2023-05-05T14:22:03.000Z,295.15
2023-05-05T14:24:09.000Z,295.34
2023-05-05T14:25:35.000Z,295.46
2023-05-05T14:27:42.000Z,295.71
2023-05-05T14:29:08.000Z,295.96
2023-05-05T14:31:14.000Z,296.09
2023-05-05T14:32:41.000Z,295.77
2023-05-05T14:34:47.000Z,296.02
2023-05-05T14:37:39.000Z,295.9
2023-05-05T14:39:06.000Z,296.02
2023-05-05T14:41:12.000Z,296.02
2023-05-05T14:42:39.000Z,295.9
2023-05-05T14:44:45.000Z,295.77
2023-05-05T14:46:11.000Z,295.65
2023-05-05T14:48:17.000Z,295.71
2023-05-05T14:49:44.000Z,295.84
2023-05-05T14:51:50.000Z,295.46
2023-05-05T14:53:19.000Z,295.34
2023-05-05T14:55:25.000Z,295.15
2023-05-05T14:56:51.000Z,295.15
2023-05-05T14:58:58.000Z,295.15
2023-05-05T15:00:24.000Z,295.15
2023-05-05T15:02:30.000Z,295.4
2023-05-05T15:03:57.000Z,295.77
2023-05-05T15:06:03.000Z,296.02
2023-05-05T15:07:30.000Z,296.15
2023-05-05T15:09:36.000Z,296.4
2023-05-05T15:11:03.000Z,296.52
2023-05-05T15:13:09.000Z,296.34
2023-05-05T15:16:00.000Z,296.59
2023-05-05T15:17:27.000Z,296.65
2023-05-05T15:19:33.000Z,296.52
2023-05-05T15:20:59.000Z,296.21
2023-05-05T15:23:05.000Z,296.09
2023-05-05T15:24:32.000Z,295.84
2023-05-05T15:26:38.000Z,295.77
2023-05-05T15:28:05.000Z,295.59
2023-05-05T15:30:11.000Z,295.27
2023-05-05T15:31:37.000Z,295.4
2023-05-05T15:33:44.000Z,295.09
2023-05-05T15:35:10.000Z,294.96
2023-05-05T15:37:16.000Z,295.02
2023-05-05T15:38:43.000Z,294.9
2023-05-05T15:40:49.000Z,294.71
2023-05-05T15:42:16.000Z,294.65
2023-05-05T15:44:22.000Z,294.65
2023-05-05T15:45:48.000Z,294.65
2023-05-05T15:47:54.000Z,294.46
2023-05-05T15:49:21.000Z,294.46
2023-05-05T15:51:27.000Z,294.4
2023-05-05T15:54:19.000Z,294.27
2023-05-05T15:55:45.000Z,294.21
2023-05-05T15:57:51.000Z,294.09
2023-05-05T15:59:18.000Z,293.9
2023-05-05T16:01:24.000Z,293.71
2023-05-05T16:02:50.000Z,293.71
2023-05-05T16:04:57.000Z,293.46
2023-05-05T16:06:23.000Z,293.46
2023-05-05T16:08:30.000Z,293.34
2023-05-05T16:09:56.000Z,293.4
2023-05-05T16:12:03.000Z,293.27
2023-05-05T16:13:29.000Z,293.21
2023-05-05T16:15:35.000Z,293.02
2023-05-05T16:17:02.000Z,293.02
2023-05-05T16:19:08.000Z,292.96
2023-05-05T16:20:35.000Z,292.9
2023-05-05T16:22:41.000Z,292.84
2023-05-05T16:24:07.000Z,292.77
2023-05-05T16:26:14.000Z,292.77
2023-05-05T16:27:40.000Z,292.71
2023-05-05T16:29:46.000Z,292.65
2023-05-05T16:32:38.000Z,292.59
2023-05-05T16:34:04.000Z,292.59
2023-05-05T16:36:10.000Z,292.52
2023-05-05T16:37:37.000Z,292.46
2023-05-05T16:39:43.000Z,292.27
2023-05-05T16:41:10.000Z,292.15
2023-05-05T16:43:16.000Z,291.96
2023-05-05T16:44:42.000Z,291.9
2023-05-05T16:46:48.000Z,291.9
2023-05-05T16:48:15.000Z,291.84
2023-05-05T16:50:21.000Z,291.71
2023-05-05T16:51:48.000Z,291.65
2023-05-05T16:53:54.000Z,291.52
2023-05-05T16:55:21.000Z,291.59
2023-05-05T16:57:27.000Z,291.34
2023-05-05T16:58:53.000Z,291.4
2023-05-05T17:00:59.000Z,291.21
2023-05-05T17:02:26.000Z,291.21
2023-05-05T17:04:32.000Z,291.15
2023-05-05T17:05:59.000Z,291.09
2023-05-05T17:08:05.000Z,290.9
2023-05-05T17:10:56.000Z,290.84
2023-05-05T17:12:23.000Z,290.77
2023-05-05T17:14:29.000Z,290.71
2023-05-05T17:15:55.000Z,290.65
2023-05-05T17:18:02.000Z,290.59
2023-05-05T17:19:28.000Z,290.59
2023-05-05T17:21:34.000Z,290.4
2023-05-05T17:23:01.000Z,290.46
2023-05-05T17:25:07.000Z,290.21
2023-05-05T17:26:34.000Z,290.21
2023-05-05T17:28:41.000Z,290.15
2023-05-05T17:30:07.000Z,290.09
2023-05-05T17:32:13.000Z,290.15
2023-05-05T17:33:40.000Z,290.21
2023-05-05T17:35:46.000Z,290.15
2023-05-05T17:37:12.000Z,290.09
2023-05-05T17:39:19.000Z,290.09
2023-05-05T17:40:45.000Z,290.02
2023-05-05T17:42:51.000Z,289.96
2023-05-05T17:44:18.000Z,289.77
2023-05-05T17:46:24.000Z,289.84
2023-05-05T17:49:15.000Z,289.71
2023-05-05T17:50:42.000Z,289.65
2023-05-05T17:52:48.000Z,289.71
2023-05-05T17:54:14.000Z,289.65
2023-05-05T17:56:20.000Z,289.59
2023-05-05T17:57:47.000Z,289.46
2023-05-05T17:59:53.000Z,289.59
2023-05-05T18:01:20.000Z,289.52
2023-05-05T18:03:26.000Z,289.4
2023-05-05T18:04:53.000Z,289.34
2023-05-05T18:06:59.000Z,289.27
2023-05-05T18:08:25.000Z,289.21
2023-05-05T18:10:32.000Z,289.15
2023-05-05T18:11:58.000Z,289.21
2023-05-05T18:14:04.000Z,289.15
2023-05-05T18:15:31.000Z,289.21
2023-05-05T18:17:37.000Z,289.21
2023-05-05T18:19:04.000Z,289.21
2023-05-05T18:21:10.000Z,289.21
2023-05-05T18:22:37.000Z,289.27
2023-05-05T18:24:43.000Z,289.21
2023-05-05T18:27:34.000Z,289.15
2023-05-05T18:29:00.000Z,289.09
2023-05-05T18:31:06.000Z,289.09
2023-05-05T18:32:33.000Z,289.09
2023-05-05T18:34:39.000Z,288.96
2023-05-05T18:36:05.000Z,288.96
2023-05-05T18:38:12.000Z,288.96
2023-05-05T18:39:38.000Z,289.02
2023-05-05T18:41:47.000Z,289.02
2023-05-05T18:43:13.000Z,288.9
2023-05-05T18:45:20.000Z,288.84
2023-05-05T18:46:46.000Z,288.77
2023-05-05T18:48:52.000Z,288.84
2023-05-05T18:50:19.000Z,288.9
2023-05-05T18:52:25.000Z,288.96
2023-05-05T18:53:52.000Z,288.96
2023-05-05T18:55:58.000Z,288.9
2023-05-05T18:57:24.000Z,288.84
2023-05-05T18:59:30.000Z,288.52
2023-05-05T19:00:57.000Z,288.52
2023-05-05T19:03:03.000Z,288.46
2023-05-05T19:05:55.000Z,288.65
2023-05-05T19:07:21.000Z,288.71
2023-05-05T19:09:39.000Z,288.65
2023-05-05T19:11:05.000Z,288.59
2023-05-05T19:13:11.000Z,288.34
2023-05-05T19:14:38.000Z,288.27
2023-05-05T19:16:44.000Z,288.21
2023-05-05T19:18:11.000Z,288.15
2023-05-05T19:20:17.000Z,288.02
2023-05-05T19:21:43.000Z,288.02
2023-05-05T19:23:49.000Z,288.02
2023-05-05T19:25:16.000Z,288.02
2023-05-05T19:27:22.000Z,288.02
2023-05-05T19:28:48.000Z,288.02
2023-05-05T19:30:55.000Z,288.09
2023-05-05T19:32:21.000Z,288.21
2023-05-05T19:34:27.000Z,288.21
2023-05-05T19:35:54.000Z,288.15
2023-05-05T19:38:00.000Z,288.02
2023-05-05T19:39:27.000Z,288.09
2023-05-05T19:41:33.000Z,288.02
2023-05-05T19:44:24.000Z,287.96
2023-05-05T19:45:51.000Z,287.9
2023-05-05T19:47:57.000Z,287.96
2023-05-05T19:49:23.000Z,287.96
2023-05-05T19:51:29.000Z,288.02
2023-05-05T19:52:56.000Z,288.09
2023-05-05T19:55:02.000Z,287.96
2023-05-05T19:56:29.000Z,287.9
2023-05-05T19:58:35.000Z,287.84
2023-05-05T20:00:01.000Z,287.77
2023-05-05T20:02:07.000Z,287.77
2023-05-05T20:03:34.000Z,287.71
2023-05-05T20:05:40.000Z,287.65
2023-05-05T20:07:07.000Z,287.71
2023-05-05T20:09:13.000Z,287.71
2023-05-05T20:10:40.000Z,287.71
2023-05-05T20:12:46.000Z,287.52
2023-05-05T20:14:13.000Z,287.52
2023-05-05T20:16:19.000Z,287.46
2023-05-05T20:17:46.000Z,287.46
2023-05-05T20:19:52.000Z,287.46
2023-05-05T20:22:43.000Z,287.4
2023-05-05T20:24:10.000Z,287.46
2023-05-05T20:26:16.000Z,287.59
2023-05-05T20:27:42.000Z,287.65
2023-05-05T20:29:48.000Z,287.65
2023-05-05T20:31:15.000Z,287.59
2023-05-05T20:33:21.000Z,287.52
2023-05-05T20:34:47.000Z,287.4
2023-05-05T20:36:54.000Z,287.27
2023-05-05T20:38:20.000Z,287.21
2023-05-05T20:40:26.000Z,287.21
2023-05-05T20:41:53.000Z,287.15
2023-05-05T20:43:59.000Z,287.09
2023-05-05T20:45:25.000Z,287.09
2023-05-05T20:47:31.000Z,287.09
2023-05-05T20:48:58.000Z,287.09
2023-05-05T20:51:04.000Z,287.21
2023-05-05T20:52:31.000Z,287.34
2023-05-05T20:54:37.000Z,287.27
2023-05-05T20:56:04.000Z,287.27
2023-05-05T20:58:12.000Z,287.15
2023-05-05T21:01:03.000Z,287.15
2023-05-05T21:02:30.000Z,287.21
2023-05-05T21:04:36.000Z,287.27
2023-05-05T21:06:03.000Z,287.34
2023-05-05T21:08:09.000Z,287.34
2023-05-05T21:09:36.000Z,287.34
2023-05-05T21:11:42.000Z,287.15
2023-05-05T21:13:08.000Z,287.09
2023-05-05T21:15:14.000Z,287.02
2023-05-05T21:16:41.000Z,287.02
2023-05-05T21:18:47.000Z,286.96
2023-05-05T21:20:14.000Z,287.02
2023-05-05T21:22:20.000Z,287.09
2023-05-05T21:23:46.000Z,287.15
2023-05-05T21:25:52.000Z,287.21
2023-05-05T21:27:19.000Z,287.21
2023-05-05T21:29:25.000Z,287.02
2023-05-05T21:30:52.000Z,286.9
2023-05-05T21:33:25.000Z,286.77
2023-05-05T21:34:51.000Z,286.65
2023-05-05T21:36:58.000Z,286.71
2023-05-05T21:39:49.000Z,286.9
2023-05-05T21:41:15.000Z,286.9
2023-05-05T21:43:21.000Z,286.84
2023-05-05T21:44:48.000Z,286.9
2023-05-05T21:46:54.000Z,286.84
2023-05-05T21:48:21.000Z,286.71
2023-05-05T21:50:27.000Z,286.77
2023-05-05T21:51:54.000Z,286.9
2023-05-05T21:54:00.000Z,286.84
2023-05-05T21:55:26.000Z,286.77
2023-05-05T21:57:32.000Z,286.84
2023-05-05T21:58:59.000Z,286.84
2023-05-05T22:01:05.000Z,286.84
2023-05-05T22:04:37.000Z,286.71
2023-05-05T22:06:04.000Z,286.59
2023-05-05T22:08:10.000Z,286.65
2023-05-05T22:09:37.000Z,286.65
2023-05-05T22:11:43.000Z,286.52
2023-05-05T22:13:09.000Z,286.46
2023-05-05T22:15:15.000Z,286.52
2023-05-05T22:18:06.000Z,286.46
2023-05-05T22:19:33.000Z,286.4
2023-05-05T22:21:39.000Z,286.4
2023-05-05T22:23:06.000Z,286.46
2023-05-05T22:25:12.000Z,286.52
2023-05-05T22:26:38.000Z,286.52
2023-05-05T22:28:44.000Z,286.52
2023-05-05T22:30:11.000Z,286.59
2023-05-05T22:32:17.000Z,286.59
2023-05-05T22:33:44.000Z,286.52
2023-05-05T22:35:50.000Z,286.59
2023-05-05T22:37:16.000Z,286.59
2023-05-05T22:39:22.000Z,286.59
2023-05-05T22:40:49.000Z,286.59
2023-05-05T22:42:55.000Z,286.46
2023-05-05T22:44:21.000Z,286.4
2023-05-05T22:46:27.000Z,286.27
2023-05-05T22:47:54.000Z,286.27
2023-05-05T22:50:00.000Z,286.27
2023-05-05T22:51:27.000Z,286.27
2023-05-05T22:53:33.000Z,286.34
2023-05-05T22:56:24.000Z,286.34
2023-05-05T22:57:51.000Z,286.4